Terminal Aerodrome Forecast
Issued by NWS

Home | Current Version | Previous Version | Text Only | Print | Product List | Glossary On
Versions: 1 2 3 4 5 6 7 8 9 10 11 12 13 14 15 16 17 18 19 20 21
000
FTUS43 KGRR 290520
TAFMKG
TAF
KMKG 290520Z 2906/3006 19010KT P6SM VCSH BKN035
      TEMPO 2906/2910 4SM RA BR OVC035
     FM291400 22012G22KT P6SM VCSH BKN050
     FM291700 25013G23KT P6SM VCTS BKN050CB
     FM292300 25012KT P6SM BKN100=

USA.gov is the U.S. government's official web portal to all federal, state and local government web resources and services.